• Join FlightAware (Why Join?)
  • Login
  • US Flag 
08:36AM EDT


 

Airport Tracker/Info


-or-


 

Live Flight TrackerFlight Track Log ✈ EJA727 ✈ 08-May-2013 ✈ KCMA - KPVU

Flight Track Log - Related Links

Times and Time Zones

All times are in EDT time to prevent confusion due to time zone crossing. See the EJA727 flight status page for this flight to view local times or setup timezone preferences in your user account.

Time Position Orientation Groundspeed Altitude Reporting Facility
EDT Latitude Longitude Course Direction KTS MPH feet Rate Location/Type
07:28PM 34.2372 -119.2039 286° West 258 297 4,000  Level Los Angeles Center
07:28PM 34.2458 -119.2400 286° West 255 293 4,900 3,360 Climbing Los Angeles Center
07:29PM 34.2422 -119.3039 266° West 273 314 7,700 2,880 Climbing Los Angeles Center
07:29PM 34.2350 -119.3283 250° West 267 307 7,900 420 Climbing Los Angeles Center
07:30PM 34.2178 -119.4422 260° West 286 329 8,400 1,380 Climbing Los Angeles Center
07:31PM 34.2047 -119.5356 260° West 284 327 10,800 2,760 Climbing Los Angeles Center
07:32PM 34.1425 -119.5931 217° Southwest 332 382 14,100 3,540 Climbing Los Angeles Center
07:33PM 34.0761 -119.5133 135° Southeast 363 418 18,200 3,480 Climbing Los Angeles Center
07:34PM 34.1069 -119.3931 73° East 391 450 21,300 2,940 Climbing Los Angeles Center
07:35PM 34.1508 -119.2700 67° East 400 460 24,300 3,000 Climbing Los Angeles Center
07:36PM 34.1964 -119.1428 67° East 409 471 27,500 3,060 Climbing Los Angeles Center
07:38PM 34.2475 -118.9856 68° East 418 481 30,700 2,160 Climbing Los Angeles Center
07:39PM 34.2900 -118.8472 70° East 435 501 32,000 1,080 Climbing Los Angeles Center
07:40PM 34.3356 -118.6983 70° East 462 532 33,000 960 Climbing Los Angeles Center
07:41PM 34.3839 -118.5422 69° East 486 559 34,000 960 Climbing Los Angeles Center
07:42PM 34.4308 -118.3853 70° East 493 567 35,000 960 Climbing Los Angeles Center
07:43PM 34.4786 -118.2283 70° East 494 568 36,000 960 Climbing Los Angeles Center
07:44PM 34.5275 -118.0678 70° East 498 573 37,000 480 Climbing Los Angeles Center
07:45PM 34.5833 -117.8792 70° East 499 574 37,000  Level Los Angeles Center
07:46PM 34.6303 -117.7211 70° East 502 578 37,000 240 Level Los Angeles Center
07:47PM 34.6753 -117.5647 71° East 499 574 37,500 540 Climbing Los Angeles Center
07:48PM 34.7219 -117.4089 70° East 498 573 38,200 540 Climbing Los Angeles Center
07:49PM 34.7678 -117.2503 71° East 502 578 38,700 360 Climbing Los Angeles Center
07:50PM 34.8236 -117.0592 70° East 506 582 39,000 120 Climbing Los Angeles Center
07:51PM 34.8869 -116.9086 63° Northeast 508 585 39,000  Level Los Angeles Center
07:52PM 34.9747 -116.7819 50° Northeast 495 570 39,000  Level Los Angeles Center
07:53PM 35.0811 -116.6303 49° Northeast 493 567 39,000  Level Los Angeles Center
07:54PM 35.1861 -116.4778 50° Northeast 492 566 39,000  Level Los Angeles Center
07:55PM 35.2750 -116.3489 50° Northeast 496 571 39,000  Level Los Angeles Center
07:56PM 35.3642 -116.2203 50° Northeast 497 572 39,000  Level Los Angeles Center
07:57PM 35.4503 -116.0903 51° Northeast 494 568 39,000  Level Los Angeles Center
07:58PM 35.5419 -115.9619 49° Northeast 500 575 39,000  Level Los Angeles Center
07:59PM 35.6372 -115.8203 50° Northeast 499 574 39,000  Level Los Angeles Center
08:00PM 35.7250 -115.6889 51° Northeast 499 574 39,000  Level Los Angeles Center
08:02PM 35.8306 -115.5331 50° Northeast 497 572 39,000  Level Los Angeles Center
08:03PM 35.9181 -115.4025 50° Northeast 498 573 39,000  Level Los Angeles Center
08:04PM 36.0050 -115.2731 50° Northeast 496 571 39,000  Level Los Angeles Center
08:05PM 36.0903 -115.1433 51° Northeast 492 566 39,000  Level Los Angeles Center
08:06PM 36.1681 -115.0478 45° Northeast 495 570 39,000  Level Los Angeles Center
08:07PM 36.3019 -114.8769 46° Northeast 497 572 39,000  Level Los Angeles Center
08:08PM 36.3975 -114.7553 46° Northeast 496 571 39,000  Level Los Angeles Center
08:09PM 36.4914 -114.6331 46° Northeast 493 567 39,000  Level Los Angeles Center
08:10PM 36.5867 -114.5089 46° Northeast 495 570 39,000  Level Los Angeles Center
08:11PM 36.6817 -114.3842 46° Northeast 497 572 39,000  Level Los Angeles Center
08:12PM 36.8022 -114.2486 42° Northeast 488 562 39,000  Level Los Angeles Center
08:13PM 36.9172 -114.1592 32° Northeast 488 562 39,000  Level Los Angeles Center
08:14PM 37.0322 -114.0714 31° Northeast 486 559 39,000  Level Los Angeles Center
08:15PM 37.1339 -113.9894 33° Northeast 487 560 39,000  Level Salt Lake Center
08:16PM 37.2483 -113.9008 32° Northeast 484 557 39,000  Level Salt Lake Center
08:17PM 37.3619 -113.8111 32° Northeast 482 555 39,000  Level Salt Lake Center
08:18PM 37.4781 -113.7217 31° Northeast 486 559 39,000  Level Salt Lake Center
08:19PM 37.5933 -113.6311 32° Northeast 485 558 39,000  Level Salt Lake Center
08:20PM 37.7072 -113.5400 32° Northeast 482 555 39,000 -420 Level Salt Lake Center
08:21PM 37.8222 -113.4497 32° Northeast 482 555 38,200 -1,020 Descending Salt Lake Center
08:22PM 37.9342 -113.3589 33° Northeast 477 549 36,900 -1,560 Descending Salt Lake Center
08:23PM 38.0689 -113.2536 32° Northeast 471 542 35,100 -1,620 Descending Salt Lake Center
08:24PM 38.1747 -113.1681 32° Northeast 454 522 33,600 -1,500 Descending Salt Lake Center
08:25PM 38.2769 -113.0847 33° Northeast 439 505 32,100 -780 Descending Salt Lake Center
08:26PM 38.3833 -113.0019 31° Northeast 445 512 32,000 -60 Descending Salt Lake Center
08:27PM 38.5022 -112.9397 22° Northeast 456 525 32,000  Level Salt Lake Center
08:28PM 38.6203 -112.8744 23° Northeast 461 531 32,000 -480 Level Salt Lake Center
08:29PM 38.7378 -112.8097 23° Northeast 461 531 31,100 -1,440 Descending Salt Lake Center
08:30PM 38.8500 -112.7467 24° Northeast 444 511 29,100 -2,160 Descending Salt Lake Center
08:31PM 38.9847 -112.6733 23° Northeast 439 505 26,700 -2,160 Descending Salt Lake Center
08:32PM 39.0931 -112.6133 23° Northeast 428 493 24,700 -1,980 Descending Salt Lake Center
08:33PM 39.2006 -112.5547 23° Northeast 422 486 22,700 -1,920 Descending Salt Lake Center
08:34PM 39.2953 -112.5011 24° Northeast 413 475 20,800 -2,100 Descending Salt Lake Center
08:35PM 39.4167 -112.4339 23° Northeast 400 460 18,400 -2,040 Descending Salt Lake Center
08:36PM 39.5147 -112.3792 23° Northeast 388 447 16,600 -1,620 Descending Salt Lake Center
08:37PM 39.6094 -112.3264 23° Northeast 376 433 15,100 -1,500 Descending Salt Lake Center
08:38PM 39.6769 -112.2381 45° Northeast 365 420 13,600 -1,500 Descending Salt Lake Center
08:39PM 39.7522 -112.1644 37° Northeast 352 405 12,100 -900 Descending Salt Lake Center
08:40PM 39.8269 -112.1317 19° North 347 399 12,000 -120 Descending Salt Lake Center
08:41PM 39.8397 -112.1144 46° Northeast 348 400 12,000 -240 Level Salt Lake Center
08:41PM 39.8769 -112.1122 North 348 400 11,900 -1,020 Descending Salt Lake Center
08:42PM 39.9447 -112.0628 29° Northeast 334 384 11,000 -1,320 Descending Salt Lake Center
08:42PM 39.9600 -112.0539 24° Northeast 341 392 10,600 -1,020 Descending Salt Lake Center
08:43PM 40.0092 -111.9744 51° Northeast 336 387 10,000 -720 Descending Salt Lake Center
08:44PM 40.0586 -111.8764 57° Northeast 327 376 9,300 -540 Descending Salt Lake Center
08:45PM 40.1072 -111.8122 45° Northeast 263 303 9,000 -420 Descending Salt Lake Center
08:46PM 40.1439 -111.7467 54° Northeast 254 292 8,500 -1,800 Descending Salt Lake Center
08:47PM 40.1953 -111.7108 28° Northeast 166 191 4,800 -2,880 Descending Salt Lake Center